createdAt,value
2022-11-22T00:01:39.944Z,12.70
2022-11-22T00:06:41.368Z,12.48
2022-11-22T00:11:42.797Z,12.82
2022-11-22T00:16:44.335Z,12.15
2022-11-22T00:21:45.793Z,12.82
2022-11-22T00:26:47.208Z,11.35
2022-11-22T00:31:48.691Z,12.95
2022-11-22T00:36:50.126Z,13.00
2022-11-22T00:41:51.532Z,14.15
2022-11-22T00:46:53.015Z,13.18
2022-11-22T00:51:54.436Z,13.93
2022-11-22T00:56:55.842Z,14.25
2022-11-22T01:01:57.329Z,13.55
2022-11-22T01:06:58.756Z,12.90
2022-11-22T01:12:00.155Z,13.13
2022-11-22T01:17:01.589Z,13.27
2022-11-22T01:22:02.988Z,12.10
2022-11-22T01:27:04.459Z,12.88
2022-11-22T01:32:06.587Z,14.32
2022-11-22T01:37:07.974Z,12.07
2022-11-22T01:42:11.099Z,12.68
2022-11-22T01:47:14.155Z,12.25
2022-11-22T01:52:21.779Z,12.55
2022-11-22T01:57:28.149Z,11.80
2022-11-22T02:02:29.602Z,11.82
2022-11-22T02:07:42.542Z,12.43
2022-11-22T02:12:44.393Z,12.32
2022-11-22T02:17:45.862Z,12.85
2022-11-22T02:23:06.742Z,13.57
2022-11-22T02:28:13.772Z,13.10
2022-11-22T02:33:15.199Z,12.32
2022-11-22T02:38:22.435Z,12.93
2022-11-22T02:43:29.853Z,12.48
2022-11-22T02:48:31.375Z,13.90
2022-11-22T02:53:32.815Z,13.38
2022-11-22T02:58:34.287Z,12.73
2022-11-22T03:03:35.803Z,13.50
2022-11-22T03:08:37.373Z,13.35
2022-11-22T03:13:38.761Z,13.98
2022-11-22T03:18:40.166Z,13.32
2022-11-22T03:23:41.615Z,13.40
2022-11-22T03:28:43.027Z,14.45
2022-11-22T03:33:44.551Z,14.60
2022-11-22T03:38:45.961Z,13.82
2022-11-22T03:43:47.349Z,13.95
2022-11-22T03:48:48.749Z,13.13
2022-11-22T03:53:50.161Z,12.15
2022-11-22T03:58:51.641Z,12.98
2022-11-22T04:03:53.113Z,12.40
2022-11-22T04:08:54.583Z,14.90
2022-11-22T04:14:14.919Z,13.38
2022-11-22T04:19:16.364Z,13.68
2022-11-22T04:24:36.192Z,12.88
2022-11-22T04:29:37.587Z,13.15
2022-11-22T04:34:38.985Z,13.13
2022-11-22T04:39:40.444Z,12.90
2022-11-22T04:44:42.964Z,14.13
2022-11-22T04:49:44.373Z,12.70
2022-11-22T04:54:45.834Z,13.68
2022-11-22T04:59:51.328Z,12.45
2022-11-22T05:04:52.736Z,12.38
2022-11-22T05:09:54.135Z,12.48
2022-11-22T05:14:55.571Z,13.00
2022-11-22T05:19:56.933Z,11.48
2022-11-22T05:24:58.406Z,12.05
2022-11-22T05:29:59.800Z,10.07
2022-11-22T05:35:01.206Z,11.40
2022-11-22T05:40:02.931Z,10.65
2022-11-22T05:45:04.662Z,10.85
2022-11-22T05:50:06.333Z,11.15
2022-11-22T05:55:07.956Z,10.25
2022-11-22T06:00:09.826Z,11.40
2022-11-22T06:05:13.322Z,11.52
2022-11-22T06:10:14.840Z,11.30
2022-11-22T06:15:16.252Z,9.77
2022-11-22T06:20:17.902Z,11.30
2022-11-22T06:25:19.296Z,11.68
2022-11-22T06:30:20.667Z,10.63
2022-11-22T06:35:22.029Z,10.57
2022-11-22T06:40:23.427Z,13.05
2022-11-22T06:45:24.799Z,12.10
2022-11-22T06:50:26.180Z,12.57
2022-11-22T06:55:49.812Z,12.35
2022-11-22T07:00:48.913Z,11.57
2022-11-22T07:05:51.661Z,11.50
2022-11-22T07:10:53.626Z,11.68
2022-11-22T07:16:00.114Z,12.00
2022-11-22T07:21:12.907Z,11.10
2022-11-22T07:26:17.037Z,12.18
2022-11-22T07:31:19.007Z,10.60
2022-11-22T07:36:22.206Z,11.85
2022-11-22T07:46:29.791Z,11.90
2022-11-22T07:51:31.353Z,12.48
2022-11-22T07:56:34.424Z,11.40
2022-11-22T08:01:35.851Z,11.68
2022-11-22T08:06:37.291Z,10.98
2022-11-22T08:11:38.703Z,12.00
2022-11-22T08:16:40.212Z,11.38
2022-11-22T08:21:41.618Z,13.05
2022-11-22T08:26:43.603Z,12.30
2022-11-22T08:31:44.968Z,13.30
2022-11-22T08:36:46.342Z,14.77
2022-11-22T08:41:48.027Z,14.57
2022-11-22T08:46:49.388Z,13.40
2022-11-22T08:51:50.979Z,12.98
2022-11-22T08:56:52.342Z,12.68
2022-11-22T09:01:53.926Z,13.27
2022-11-22T09:12:16.812Z,12.43
2022-11-22T09:17:18.473Z,11.73
2022-11-22T09:22:22.807Z,12.15
2022-11-22T09:27:26.986Z,11.35
2022-11-22T09:32:33.474Z,10.32
2022-11-22T09:37:35.247Z,9.70
2022-11-22T09:42:43.227Z,9.82
2022-11-22T09:48:21.927Z,10.95
2022-11-22T09:53:30.415Z,10.98
2022-11-22T09:58:37.454Z,11.23
2022-11-22T10:03:51.849Z,11.20
2022-11-22T10:09:05.378Z,11.75
2022-11-22T10:14:29.759Z,12.07
2022-11-22T10:19:50.198Z,11.95
2022-11-22T10:24:51.559Z,12.00
2022-11-22T10:29:52.906Z,11.55
2022-11-22T10:35:30.591Z,10.88
2022-11-22T10:41:01.119Z,11.70
2022-11-22T10:46:27.635Z,10.68
2022-11-22T10:51:54.691Z,10.55
2022-11-22T10:57:11.146Z,10.13
2022-11-22T11:02:27.706Z,9.35
2022-11-22T11:07:29.408Z,10.45
2022-11-22T11:12:49.297Z,11.50
2022-11-22T11:17:58.662Z,10.15
2022-11-22T11:23:14.283Z,10.77
2022-11-22T11:28:19.310Z,9.40
2022-11-22T11:33:32.555Z,9.35
2022-11-22T11:43:54.798Z,9.43
2022-11-22T11:49:10.094Z,9.27
2022-11-22T11:54:15.893Z,9.27
2022-11-22T11:59:22.907Z,8.43
2022-11-22T12:04:35.914Z,7.97
2022-11-22T12:09:44.140Z,8.65
2022-11-22T12:15:10.801Z,8.65
2022-11-22T12:20:21.095Z,9.07
2022-11-22T12:25:36.610Z,8.10
2022-11-22T12:30:40.931Z,8.75
2022-11-22T12:35:44.415Z,8.00
2022-11-22T12:40:51.182Z,8.27
2022-11-22T12:46:04.575Z,8.48
2022-11-22T12:51:28.648Z,9.90
2022-11-22T12:56:39.080Z,10.10
2022-11-22T13:01:54.307Z,11.15
2022-11-22T13:07:12.093Z,11.43
2022-11-22T13:12:31.717Z,12.52
2022-11-22T13:17:35.934Z,11.65
2022-11-22T13:22:49.768Z,11.57
2022-11-22T13:27:53.069Z,10.38
2022-11-22T13:32:59.511Z,10.73
2022-11-22T13:38:21.970Z,12.02
2022-11-22T13:43:33.182Z,12.13
2022-11-22T13:48:40.491Z,12.82
2022-11-22T13:53:45.920Z,11.30
2022-11-22T13:58:50.723Z,12.73
2022-11-22T14:03:52.755Z,11.13
2022-11-22T14:09:25.439Z,12.07
2022-11-22T14:14:58.944Z,10.40
2022-11-22T14:25:17.694Z,9.85
2022-11-22T14:30:37.550Z,9.77
2022-11-22T14:35:59.138Z,10.18
2022-11-22T14:41:28.313Z,9.75
2022-11-22T14:46:52.713Z,9.05
2022-11-22T14:51:56.157Z,8.93
2022-11-22T14:57:04.336Z,9.10
2022-11-22T15:02:43.639Z,9.25
2022-11-22T15:09:12.130Z,9.63
2022-11-22T15:13:49.844Z,10.23
2022-11-22T15:57:46.933Z,26.95
2022-11-22T16:02:51.271Z,10.10
2022-11-22T16:07:53.478Z,9.68
2022-11-22T16:12:55.017Z,11.43
2022-11-22T16:18:14.410Z,12.63
2022-11-22T16:23:19.697Z,12.70
2022-11-22T16:28:28.780Z,13.35
2022-11-22T16:33:30.655Z,12.02
2022-11-22T16:38:32.163Z,12.50
2022-11-22T16:43:35.195Z,12.68
2022-11-22T16:48:36.570Z,12.50
2022-11-22T16:53:49.004Z,13.70
2022-11-22T16:58:51.735Z,14.20
2022-11-22T17:03:55.798Z,13.55
2022-11-22T17:08:59.043Z,13.60
2022-11-22T17:14:01.011Z,15.23
2022-11-22T17:19:02.472Z,14.63
2022-11-22T17:24:16.411Z,16.17
2022-11-22T17:29:43.355Z,15.75
2022-11-22T17:34:39.206Z,16.08
2022-11-22T17:39:40.906Z,13.90
2022-11-22T17:44:42.370Z,14.18
2022-11-22T17:49:44.060Z,14.65
2022-11-22T17:54:45.453Z,14.02
2022-11-22T17:59:46.860Z,13.63
2022-11-22T18:04:48.281Z,15.20
2022-11-22T18:09:51.543Z,14.90
2022-11-22T18:14:53.307Z,15.32
2022-11-22T18:19:54.671Z,15.95
2022-11-22T18:24:56.075Z,16.05
2022-11-22T18:29:57.627Z,14.23
2022-11-22T18:34:59.173Z,15.43
2022-11-22T18:40:01.416Z,14.88
2022-11-22T18:45:02.845Z,14.13
2022-11-22T18:50:06.369Z,11.95
2022-11-22T18:55:11.643Z,12.15
2022-11-22T19:00:14.287Z,10.05
2022-11-22T19:05:15.975Z,9.27
2022-11-22T19:10:17.447Z,8.77
2022-11-22T19:15:18.994Z,9.05
2022-11-22T19:20:47.503Z,8.80
2022-11-22T19:25:42.406Z,8.82
2022-11-22T19:30:44.425Z,7.80
2022-11-22T19:36:00.227Z,8.65
2022-11-22T19:41:01.745Z,8.75
2022-11-22T19:46:04.050Z,8.98
2022-11-22T20:17:34.910Z,10.38
2022-11-22T20:43:19.241Z,9.15
2022-11-22T20:52:36.962Z,7.43
2022-11-22T21:04:10.487Z,7.32
2022-11-22T21:50:50.279Z,6.30
2022-11-22T21:55:53.330Z,6.57
2022-11-22T22:05:59.175Z,5.82
2022-11-22T22:11:02.371Z,6.00
2022-11-22T22:16:12.669Z,5.80
2022-11-22T22:21:15.204Z,5.85
2022-11-22T22:26:17.230Z,5.32
2022-11-22T22:31:22.154Z,4.80
2022-11-22T22:36:27.036Z,6.00
2022-11-22T22:41:28.475Z,5.22
2022-11-22T22:46:29.845Z,6.50
2022-11-22T22:51:33.123Z,6.13
2022-11-22T22:56:34.868Z,6.82
2022-11-22T23:01:36.254Z,5.97
2022-11-22T23:06:39.591Z,6.63
2022-11-22T23:12:00.025Z,5.20
2022-11-22T23:17:01.454Z,4.68
2022-11-22T23:22:03.574Z,5.05
2022-11-22T23:27:04.934Z,4.28
2022-11-22T23:32:06.363Z,4.15
2022-11-22T23:37:07.948Z,4.15
2022-11-22T23:42:09.303Z,4.03
2022-11-22T23:47:10.689Z,4.45
2022-11-22T23:52:12.079Z,4.43
2022-11-22T23:57:13.451Z,4.80
